createdAt,value
2017-06-09T00:01:47.693Z,95475.41
2017-06-09T00:04:15.251Z,95469.86
2017-06-09T00:06:42.789Z,95470.16
2017-06-09T00:09:10.358Z,95468.81
2017-06-09T00:11:37.895Z,95469.07
2017-06-09T00:14:05.425Z,95470.16
2017-06-09T00:16:33.018Z,95471.25
2017-06-09T00:19:00.593Z,95480.17
2017-06-09T00:21:28.126Z,95478.39
2017-06-09T00:23:55.706Z,95476.17
2017-06-09T00:26:23.252Z,95468.48
2017-06-09T00:28:50.782Z,95463.27
2017-06-09T00:31:18.353Z,95476.31
2017-06-09T00:33:45.896Z,95466.63
2017-06-09T00:36:13.458Z,95463.56
2017-06-09T00:38:41.037Z,95467.52
2017-06-09T00:41:08.578Z,95463.20
2017-06-09T00:43:36.143Z,95471.78
2017-06-09T00:46:03.730Z,95464.38
2017-06-09T00:48:31.273Z,95461.55
2017-06-09T00:50:58.825Z,95450.37
2017-06-09T00:53:26.406Z,95466.61
2017-06-09T00:55:53.934Z,95474.30
2017-06-09T00:58:21.686Z,95468.36
2017-06-09T01:00:49.433Z,95467.55
2017-06-09T01:03:16.968Z,95471.78
2017-06-09T01:05:44.516Z,95475.69
2017-06-09T01:08:12.085Z,95475.47
2017-06-09T01:10:39.635Z,95479.89
2017-06-09T01:13:07.187Z,95481.71
2017-06-09T01:15:34.783Z,95481.42
2017-06-09T01:18:02.306Z,95468.77
2017-06-09T01:20:29.875Z,95463.23
2017-06-09T01:22:57.441Z,95474.70
2017-06-09T01:25:24.973Z,95470.07
2017-06-09T01:27:52.521Z,95471.42
2017-06-09T01:30:20.271Z,95467.34
2017-06-09T01:32:47.803Z,95458.72
2017-06-09T01:35:15.346Z,95467.52
2017-06-09T01:37:42.925Z,95466.84
2017-06-09T01:40:10.519Z,95469.69
2017-06-09T01:42:38.049Z,95459.45
2017-06-09T01:45:05.668Z,95464.67
2017-06-09T01:47:33.226Z,95463.78
2017-06-09T01:50:00.778Z,95465.63
2017-06-09T01:52:28.426Z,95466.22
2017-06-09T01:54:56.009Z,95461.94
2017-06-09T01:57:23.561Z,95449.38
2017-06-09T01:59:51.126Z,95437.11
2017-06-09T02:02:18.703Z,95457.94
2017-06-09T02:04:46.237Z,95465.76
2017-06-09T02:07:13.773Z,95464.93
2017-06-09T02:09:41.374Z,95464.16
2017-06-09T02:12:08.911Z,95468.59
2017-06-09T02:14:36.453Z,95469.78
2017-06-09T02:17:04.033Z,95469.34
2017-06-09T02:19:31.562Z,95466.87
2017-06-09T02:21:59.090Z,95468.33
2017-06-09T02:24:26.657Z,95467.69
2017-06-09T02:26:54.195Z,95473.32
2017-06-09T02:29:21.731Z,95468.28
2017-06-09T02:31:49.307Z,95468.19
2017-06-09T02:34:17.295Z,95472.02
2017-06-09T02:36:44.901Z,95464.38
2017-06-09T02:39:13.538Z,95466.05
2017-06-09T02:41:41.236Z,95462.47
2017-06-09T02:44:08.782Z,95467.38
2017-06-09T02:46:36.359Z,95464.31
2017-06-09T02:49:03.932Z,95458.62
2017-06-09T02:51:31.481Z,95461.43
2017-06-09T02:53:59.066Z,95449.22
2017-06-09T02:56:26.613Z,95455.94
2017-06-09T02:58:54.228Z,95452.62
2017-06-09T03:01:21.810Z,95453.38
2017-06-09T03:03:49.354Z,95455.27
2017-06-09T03:06:16.906Z,95456.34
2017-06-09T03:08:44.473Z,95456.25
2017-06-09T03:11:12.012Z,95453.11
2017-06-09T03:13:39.551Z,95458.02
2017-06-09T03:16:07.132Z,95458.58
2017-06-09T03:18:35.033Z,95456.42
2017-06-09T03:21:02.635Z,95463.02
2017-06-09T03:23:30.202Z,95458.56
2017-06-09T03:25:57.748Z,95465.83
2017-06-09T03:28:25.290Z,95459.02
2017-06-09T03:30:52.862Z,95459.79
2017-06-09T03:33:20.391Z,95462.03
2017-06-09T03:35:47.931Z,95464.48
2017-06-09T03:38:15.502Z,95472.83
2017-06-09T03:40:43.041Z,95473.04
2017-06-09T03:43:10.592Z,95464.91
2017-06-09T03:45:38.159Z,95478.33
2017-06-09T03:48:05.701Z,95479.61
2017-06-09T03:50:33.233Z,95490.84
2017-06-09T03:53:00.793Z,95494.03
2017-06-09T03:55:28.351Z,95483.95
2017-06-09T03:57:55.890Z,95475.98
2017-06-09T04:00:23.735Z,95471.44
2017-06-09T04:02:51.276Z,95470.21
2017-06-09T04:05:18.807Z,95462.10
2017-06-09T04:07:46.385Z,95473.27
2017-06-09T04:10:13.917Z,95479.95
2017-06-09T04:12:41.444Z,95488.20
2017-06-09T04:15:09.023Z,95485.05
2017-06-09T04:17:36.563Z,95482.62
2017-06-09T04:20:04.089Z,95477.11
2017-06-09T04:22:31.650Z,95474.52
2017-06-09T04:24:59.227Z,95479.12
2017-06-09T04:27:26.759Z,95481.54
2017-06-09T04:29:54.329Z,95478.39
2017-06-09T04:32:21.895Z,95487.30
2017-06-09T04:34:49.450Z,95490.11
2017-06-09T04:37:16.983Z,95481.68
2017-06-09T04:39:44.554Z,95482.80
2017-06-09T04:42:12.091Z,95476.05
2017-06-09T04:44:39.634Z,95490.66
2017-06-09T04:47:07.207Z,95502.88
2017-06-09T04:49:34.747Z,95500.12
2017-06-09T04:52:02.303Z,95503.22
2017-06-09T04:54:29.866Z,95489.67
2017-06-09T04:56:57.425Z,95481.59
2017-06-09T04:59:24.946Z,95473.31
2017-06-09T05:01:52.518Z,95469.59
2017-06-09T05:04:20.053Z,95456.16
2017-06-09T05:06:47.585Z,95467.56
2017-06-09T05:09:15.158Z,95476.95
2017-06-09T05:11:42.699Z,95490.14
2017-06-09T05:14:10.221Z,95489.59
2017-06-09T05:16:37.789Z,95474.58
2017-06-09T05:19:05.326Z,95467.78
2017-06-09T05:21:32.866Z,95485.02
2017-06-09T05:24:00.438Z,95483.86
2017-06-09T05:26:27.996Z,95504.52
2017-06-09T05:28:55.554Z,95517.80
2017-06-09T05:31:26.975Z,95516.72
2017-06-09T05:33:54.509Z,95529.57
2017-06-09T05:36:22.039Z,95510.70
2017-06-09T05:38:49.630Z,95507.03
2017-06-09T05:41:17.161Z,95507.70
2017-06-09T05:43:44.693Z,95508.98
2017-06-09T05:46:12.254Z,95505.72
2017-06-09T05:48:39.787Z,95497.73
2017-06-09T05:51:07.317Z,95495.03
2017-06-09T05:53:34.878Z,95479.88
2017-06-09T05:56:02.415Z,95504.64
2017-06-09T05:58:29.973Z,95492.09
2017-06-09T06:00:57.826Z,95495.50
2017-06-09T06:03:25.357Z,95494.19
2017-06-09T06:05:52.895Z,95499.66
2017-06-09T06:08:20.487Z,95518.99
2017-06-09T06:10:48.024Z,95518.10
2017-06-09T06:13:15.550Z,95523.02
2017-06-09T06:15:43.117Z,95520.70
2017-06-09T06:18:10.662Z,95510.13
2017-06-09T06:20:38.189Z,95497.56
2017-06-09T06:23:05.764Z,95506.16
2017-06-09T06:25:33.294Z,95516.12
2017-06-09T06:28:00.836Z,95516.84
2017-06-09T06:30:28.411Z,95523.90
2017-06-09T06:32:55.941Z,95522.08
2017-06-09T06:35:23.473Z,95525.56
2017-06-09T06:37:51.043Z,95522.25
2017-06-09T06:40:18.582Z,95523.66
2017-06-09T06:42:46.110Z,95517.42
2017-06-09T06:45:13.702Z,95522.17
2017-06-09T06:47:41.255Z,95508.64
2017-06-09T06:50:08.789Z,95508.31
2017-06-09T06:52:36.362Z,95509.58
2017-06-09T06:55:03.921Z,95511.63
2017-06-09T06:57:31.464Z,95515.05
2017-06-09T06:59:59.043Z,95516.81
2017-06-09T07:02:26.623Z,95497.59
2017-06-09T07:04:54.153Z,95516.25
2017-06-09T07:07:21.695Z,95510.98
2017-06-09T07:09:49.285Z,95512.71
2017-06-09T07:12:16.818Z,95522.33
2017-06-09T07:14:44.372Z,95520.94
2017-06-09T07:17:11.944Z,95517.06
2017-06-09T07:19:39.487Z,95514.40
2017-06-09T07:22:07.023Z,95513.27
2017-06-09T07:24:34.595Z,95514.27
2017-06-09T07:27:02.133Z,95513.93
2017-06-09T07:29:29.667Z,95514.66
2017-06-09T07:31:57.237Z,95511.72
2017-06-09T07:34:24.797Z,95491.50
2017-06-09T07:36:52.335Z,95522.27
2017-06-09T07:39:19.898Z,95516.11
2017-06-09T07:41:47.462Z,95521.20
2017-06-09T07:44:14.994Z,95524.44
2017-06-09T07:46:42.561Z,95520.64
2017-06-09T07:49:10.097Z,95529.41
2017-06-09T07:51:37.625Z,95528.33
2017-06-09T07:54:05.209Z,95530.64
2017-06-09T07:56:32.742Z,95537.45
2017-06-09T07:59:00.276Z,95534.20
2017-06-09T08:01:27.844Z,95530.42
2017-06-09T08:03:55.371Z,95538.37
2017-06-09T08:06:22.907Z,95532.41
2017-06-09T08:08:50.474Z,95539.53
2017-06-09T08:11:18.007Z,95540.15
2017-06-09T08:13:45.569Z,95538.70
2017-06-09T08:16:13.140Z,95542.67
2017-06-09T08:18:40.670Z,95548.61
2017-06-09T08:21:08.210Z,95539.31
2017-06-09T08:23:35.776Z,95543.90
2017-06-09T08:26:03.983Z,95547.80
2017-06-09T08:28:31.518Z,95543.66
2017-06-09T08:30:59.090Z,95550.81
2017-06-09T08:33:26.614Z,95546.66
2017-06-09T08:35:54.150Z,95554.19
2017-06-09T08:38:21.721Z,95549.77
2017-06-09T08:40:49.259Z,95552.11
2017-06-09T08:43:16.785Z,95559.56
2017-06-09T08:45:44.366Z,95554.88
2017-06-09T08:48:11.895Z,95552.83
2017-06-09T08:50:39.452Z,95551.91
2017-06-09T08:53:07.028Z,95547.62
2017-06-09T08:55:34.560Z,95546.69
2017-06-09T08:58:02.091Z,95538.95
2017-06-09T09:00:29.694Z,95545.35
2017-06-09T09:02:57.235Z,95544.78
2017-06-09T09:05:24.763Z,95548.89
2017-06-09T09:07:52.350Z,95551.47
2017-06-09T09:10:19.891Z,95545.28
2017-06-09T09:12:47.421Z,95546.95
2017-06-09T09:15:14.991Z,95548.53
2017-06-09T09:17:42.513Z,95545.70
2017-06-09T09:20:10.058Z,95546.05
2017-06-09T09:22:37.629Z,95546.05
2017-06-09T09:25:05.172Z,95542.61
2017-06-09T09:27:32.738Z,95538.20
2017-06-09T09:30:00.306Z,95539.22
2017-06-09T09:32:27.889Z,95544.36
2017-06-09T09:34:55.439Z,95538.59
2017-06-09T09:37:22.991Z,95537.59
2017-06-09T09:39:50.578Z,95538.92
2017-06-09T09:42:18.111Z,95533.78
2017-06-09T09:44:45.659Z,95536.55
2017-06-09T09:47:13.230Z,95530.73
2017-06-09T09:49:40.762Z,95529.45
2017-06-09T09:52:08.304Z,95536.19
2017-06-09T09:54:35.881Z,95527.06
2017-06-09T09:57:03.406Z,95528.92
2017-06-09T09:59:30.994Z,95535.37
2017-06-09T10:01:58.567Z,95527.12
2017-06-09T10:04:26.118Z,95524.56
2017-06-09T10:06:53.653Z,95520.67
2017-06-09T10:09:21.296Z,95519.87
2017-06-09T10:11:48.828Z,95523.77
2017-06-09T10:14:16.361Z,95517.81
2017-06-09T10:16:43.924Z,95519.42
2017-06-09T10:19:11.454Z,95491.82
2017-06-09T10:21:38.995Z,95515.56
2017-06-09T10:24:06.582Z,95510.71
2017-06-09T10:26:34.116Z,95515.28
2017-06-09T10:29:01.653Z,95516.86
2017-06-09T10:31:29.217Z,95519.09
2017-06-09T10:33:56.750Z,95516.08
2017-06-09T10:36:24.302Z,95514.91
2017-06-09T10:38:51.867Z,95516.38
2017-06-09T10:41:19.399Z,95510.71
2017-06-09T10:43:46.935Z,95503.22
2017-06-09T10:46:14.511Z,95504.92
2017-06-09T10:48:42.311Z,95503.42
2017-06-09T10:51:09.839Z,95501.44
2017-06-09T10:53:37.403Z,95490.91
2017-06-09T10:56:04.946Z,95492.32
2017-06-09T10:58:32.482Z,95497.44
2017-06-09T11:01:00.077Z,95493.14
2017-06-09T11:03:27.607Z,95495.12
2017-06-09T11:05:55.137Z,95482.92
2017-06-09T11:08:22.718Z,95482.94
2017-06-09T11:10:50.282Z,95473.20
2017-06-09T11:13:17.834Z,95474.16
2017-06-09T11:15:45.452Z,95477.28
2017-06-09T11:18:13.010Z,95482.39
2017-06-09T11:20:40.544Z,95477.61
2017-06-09T11:23:08.122Z,95483.31
2017-06-09T11:25:35.682Z,95476.59
2017-06-09T11:28:03.217Z,95469.70
2017-06-09T11:30:30.890Z,95465.41
2017-06-09T11:32:58.429Z,95462.55
2017-06-09T11:35:26.001Z,95460.02
2017-06-09T11:37:53.594Z,95470.87
2017-06-09T11:40:21.387Z,95472.08
2017-06-09T11:42:48.977Z,95460.03
2017-06-09T11:45:16.593Z,95457.45
2017-06-09T11:47:44.154Z,95455.14
2017-06-09T11:50:11.710Z,95436.97
2017-06-09T11:52:39.286Z,95466.34
2017-06-09T11:55:06.843Z,95456.17
2017-06-09T11:57:34.389Z,95464.05
2017-06-09T12:00:02.004Z,95465.16
2017-06-09T12:02:29.573Z,95457.45
2017-06-09T12:04:57.098Z,95454.98
2017-06-09T12:07:25.541Z,95465.68
2017-06-09T12:09:53.128Z,95460.98
2017-06-09T12:12:20.662Z,95462.11
2017-06-09T12:14:48.205Z,95465.04
2017-06-09T12:17:15.773Z,95466.50
2017-06-09T12:19:43.599Z,95463.00
2017-06-09T12:22:11.151Z,95464.55
2017-06-09T12:24:38.721Z,95462.03
2017-06-09T12:27:06.261Z,95465.95
2017-06-09T12:29:35.381Z,95462.85
2017-06-09T12:32:03.081Z,95458.53
2017-06-09T12:34:30.619Z,95466.19
2017-06-09T12:36:58.786Z,95465.92
2017-06-09T12:39:26.347Z,95470.37
2017-06-09T12:41:53.875Z,95465.41
2017-06-09T12:44:21.406Z,95452.73
2017-06-09T12:46:49.017Z,95462.03
2017-06-09T12:49:16.555Z,95463.00
2017-06-09T12:51:44.434Z,95461.80
2017-06-09T12:54:12.001Z,95462.52
2017-06-09T12:56:39.530Z,95461.03
2017-06-09T12:59:07.069Z,95456.24
2017-06-09T13:01:34.650Z,95462.16
2017-06-09T13:04:02.218Z,95455.27
2017-06-09T13:06:29.789Z,95459.80
2017-06-09T13:08:57.466Z,95448.27
2017-06-09T13:11:25.088Z,95457.56
2017-06-09T13:13:52.643Z,95454.84
2017-06-09T13:16:20.225Z,95452.02
2017-06-09T13:18:47.773Z,95453.03
2017-06-09T13:21:16.041Z,95453.84
2017-06-09T13:23:43.638Z,95453.27
2017-06-09T13:26:11.697Z,95448.80
2017-06-09T13:28:39.701Z,95419.24
2017-06-09T13:31:07.805Z,95455.88
2017-06-09T13:33:35.353Z,95452.45
2017-06-09T13:36:02.887Z,95459.39
2017-06-09T13:38:30.494Z,95451.66
2017-06-09T13:40:58.383Z,95448.04
2017-06-09T13:43:25.932Z,95449.39
2017-06-09T13:45:53.511Z,95446.05
2017-06-09T13:48:21.058Z,95438.88
2017-06-09T13:50:48.813Z,95447.86
2017-06-09T13:53:17.182Z,95440.84
2017-06-09T13:55:44.709Z,95450.08
2017-06-09T13:58:12.418Z,95436.94
2017-06-09T14:00:40.090Z,95433.19
2017-06-09T14:03:08.217Z,95433.39
2017-06-09T14:05:36.422Z,95436.47
2017-06-09T14:08:04.413Z,95429.61
2017-06-09T14:10:32.281Z,95439.89
2017-06-09T14:13:00.459Z,95436.18
2017-06-09T14:15:28.056Z,95432.78
2017-06-09T14:17:55.877Z,95435.00
2017-06-09T14:20:23.638Z,95435.83
2017-06-09T14:22:51.213Z,95437.00
2017-06-09T14:25:19.290Z,95438.07
2017-06-09T14:27:46.850Z,95436.47
2017-06-09T14:30:14.436Z,95441.53
2017-06-09T14:32:41.962Z,95443.69
2017-06-09T14:35:09.604Z,95448.10
2017-06-09T14:37:37.179Z,95443.23
2017-06-09T14:40:04.735Z,95439.35
2017-06-09T14:42:32.270Z,95436.19
2017-06-09T14:45:00.274Z,95437.36
2017-06-09T14:47:27.820Z,95435.48
2017-06-09T14:49:55.382Z,95425.63
2017-06-09T14:52:22.966Z,95422.88
2017-06-09T14:54:50.514Z,95425.05
2017-06-09T14:57:18.279Z,95429.53
2017-06-09T14:59:45.873Z,95431.83
2017-06-09T15:02:13.436Z,95428.96
2017-06-09T15:04:40.995Z,95432.55
2017-06-09T15:07:08.572Z,95428.81
2017-06-09T15:09:36.155Z,95432.19
2017-06-09T15:12:04.244Z,95428.11
2017-06-09T15:14:31.793Z,95421.89
2017-06-09T15:16:59.774Z,95425.41
2017-06-09T15:19:27.834Z,95421.90
2017-06-09T15:21:55.381Z,95428.84
2017-06-09T15:24:22.966Z,95419.16
2017-06-09T15:26:50.624Z,95405.05
2017-06-09T15:29:18.160Z,95426.61
2017-06-09T15:31:45.761Z,95428.08
2017-06-09T15:34:13.290Z,95436.05
2017-06-09T15:36:40.814Z,95432.52
2017-06-09T15:39:08.387Z,95431.30
2017-06-09T15:41:35.965Z,95429.54
2017-06-09T15:44:03.786Z,95423.84
2017-06-09T15:46:31.376Z,95432.62
2017-06-09T15:48:58.913Z,95437.55
2017-06-09T15:51:26.441Z,95433.20
2017-06-09T15:53:54.424Z,95430.89
2017-06-09T15:56:22.335Z,95438.70
2017-06-09T15:58:50.361Z,95432.73
2017-06-09T16:01:17.979Z,95435.73
2017-06-09T16:03:45.534Z,95435.17
2017-06-09T16:06:13.074Z,95443.86
2017-06-09T16:08:40.638Z,95441.80
2017-06-09T16:11:08.172Z,95437.98
2017-06-09T16:13:35.710Z,95442.69
2017-06-09T16:16:04.001Z,95441.26
2017-06-09T16:18:31.536Z,95444.36
2017-06-09T16:20:59.078Z,95443.25
2017-06-09T16:23:27.220Z,95424.52
2017-06-09T16:25:54.769Z,95445.88
2017-06-09T16:28:22.546Z,95437.16
2017-06-09T16:30:50.126Z,95448.41
2017-06-09T16:33:17.690Z,95454.70
2017-06-09T16:35:45.226Z,95460.84
2017-06-09T16:38:13.673Z,95469.47
2017-06-09T16:40:41.219Z,95471.91
2017-06-09T16:43:08.982Z,95460.03
2017-06-09T16:45:36.594Z,95476.52
2017-06-09T16:48:04.670Z,95479.42
2017-06-09T16:50:32.755Z,95473.48
2017-06-09T16:53:00.325Z,95475.41
2017-06-09T16:55:28.121Z,95474.88
2017-06-09T16:57:55.645Z,95477.92
2017-06-09T17:00:23.325Z,95487.91
2017-06-09T17:02:51.250Z,95472.43
2017-06-09T17:05:19.123Z,95479.80
2017-06-09T17:07:46.704Z,95487.07
2017-06-09T17:10:14.514Z,95487.40
2017-06-09T17:12:42.051Z,95486.22
2017-06-09T17:15:09.626Z,95483.88
2017-06-09T17:17:37.159Z,95501.09
2017-06-09T17:20:04.698Z,95508.05
2017-06-09T17:22:32.273Z,95509.64
2017-06-09T17:24:59.807Z,95498.66
2017-06-09T17:27:27.575Z,95513.52
2017-06-09T17:29:55.139Z,95507.60
2017-06-09T17:32:22.939Z,95511.94
2017-06-09T17:34:50.470Z,95511.53
2017-06-09T17:37:18.008Z,95522.30
2017-06-09T17:39:45.585Z,95527.77
2017-06-09T17:42:13.534Z,95523.77
2017-06-09T17:44:41.065Z,95526.55
2017-06-09T17:47:08.659Z,95532.23
2017-06-09T17:49:36.425Z,95526.33
2017-06-09T17:52:03.986Z,95527.48
2017-06-09T17:54:31.576Z,95532.34
2017-06-09T17:56:59.115Z,95539.43
2017-06-09T17:59:26.645Z,95537.30
2017-06-09T18:01:54.221Z,95538.20
2017-06-09T18:04:22.390Z,95543.67
2017-06-09T18:06:49.929Z,95549.58
2017-06-09T18:09:17.512Z,95556.64
2017-06-09T18:11:45.046Z,95553.80
2017-06-09T18:14:12.581Z,95553.49
2017-06-09T18:16:40.171Z,95555.58
2017-06-09T18:19:07.738Z,95551.77
2017-06-09T18:21:35.273Z,95551.64
2017-06-09T18:24:02.926Z,95550.08
2017-06-09T18:26:30.689Z,95554.69
2017-06-09T18:28:58.230Z,95549.77
2017-06-09T18:31:26.124Z,95550.02
2017-06-09T18:33:53.895Z,95558.95
2017-06-09T18:36:21.449Z,95558.70
2017-06-09T18:38:49.013Z,95559.75
2017-06-09T18:41:16.550Z,95569.06
2017-06-09T18:43:44.081Z,95565.78
2017-06-09T18:46:11.657Z,95567.95
2017-06-09T18:48:39.211Z,95585.36
2017-06-09T18:51:07.147Z,95577.98
2017-06-09T18:53:34.751Z,95577.23
2017-06-09T18:56:02.323Z,95584.20
2017-06-09T18:58:29.855Z,95584.20
2017-06-09T19:00:57.430Z,95586.23
2017-06-09T19:03:24.963Z,95585.21
2017-06-09T19:05:52.524Z,95579.27
2017-06-09T19:08:20.109Z,95580.37
2017-06-09T19:10:47.729Z,95562.14
2017-06-09T19:13:15.281Z,95565.10
2017-06-09T19:15:42.873Z,95588.36
2017-06-09T19:18:10.419Z,95584.88
2017-06-09T19:20:37.953Z,95565.73
2017-06-09T19:23:05.527Z,95582.09
2017-06-09T19:25:33.061Z,95584.36
2017-06-09T19:28:00.610Z,95590.34
2017-06-09T19:30:28.322Z,95589.66
2017-06-09T19:32:55.845Z,95589.22
2017-06-09T19:35:23.385Z,95586.70
2017-06-09T19:37:50.966Z,95583.61
2017-06-09T19:40:18.502Z,95587.54
2017-06-09T19:42:46.039Z,95592.59
2017-06-09T19:45:13.606Z,95589.13
2017-06-09T19:47:41.580Z,95587.92
2017-06-09T19:50:09.122Z,95587.37
2017-06-09T19:52:36.697Z,95585.61
2017-06-09T19:55:04.461Z,95588.53
2017-06-09T19:57:32.007Z,95590.96
2017-06-09T19:59:59.574Z,95589.09
2017-06-09T20:02:27.185Z,95599.05
2017-06-09T20:04:54.723Z,95592.22
2017-06-09T20:07:22.267Z,95597.95
2017-06-09T20:09:49.855Z,95605.03
2017-06-09T20:12:17.398Z,95611.41
2017-06-09T20:14:44.939Z,95577.31
2017-06-09T20:17:12.541Z,95608.30
2017-06-09T20:19:40.085Z,95610.67
2017-06-09T20:22:07.925Z,95619.28
2017-06-09T20:24:35.507Z,95621.84
2017-06-09T20:27:03.050Z,95615.98
2017-06-09T20:29:30.806Z,95622.11
2017-06-09T20:31:58.387Z,95622.12
2017-06-09T20:34:25.934Z,95632.73
2017-06-09T20:36:53.474Z,95628.47
2017-06-09T20:39:21.822Z,95629.48
2017-06-09T20:41:49.466Z,95628.47
2017-06-09T20:44:17.029Z,95635.91
2017-06-09T20:46:44.597Z,95634.13
2017-06-09T20:49:12.136Z,95629.34
2017-06-09T20:51:39.681Z,95627.64
2017-06-09T20:54:07.250Z,95631.81
2017-06-09T20:56:34.793Z,95632.05
2017-06-09T20:59:02.333Z,95633.48
2017-06-09T21:01:29.933Z,95623.44
2017-06-09T21:03:57.491Z,95600.59
2017-06-09T21:06:25.085Z,95625.83
2017-06-09T21:08:52.695Z,95625.09
2017-06-09T21:11:20.250Z,95630.66
2017-06-09T21:13:47.788Z,95622.69
2017-06-09T21:16:15.381Z,95624.66
2017-06-09T21:18:42.910Z,95625.72
2017-06-09T21:21:10.441Z,95623.67
2017-06-09T21:23:38.109Z,95621.64
2017-06-09T21:26:05.664Z,95629.00
2017-06-09T21:28:33.206Z,95629.57
2017-06-09T21:31:00.794Z,95624.98
2017-06-09T21:33:28.334Z,95629.50
2017-06-09T21:35:55.866Z,95621.30
2017-06-09T21:38:23.517Z,95618.83
2017-06-09T21:40:51.050Z,95629.55
2017-06-09T21:43:18.587Z,95627.94
2017-06-09T21:45:46.145Z,95618.89
2017-06-09T21:48:13.666Z,95618.20
2017-06-09T21:50:41.193Z,95592.99
2017-06-09T21:53:08.773Z,95607.33
2017-06-09T21:55:36.306Z,95615.25
2017-06-09T21:58:03.843Z,95609.09
2017-06-09T22:00:31.550Z,95612.47
2017-06-09T22:02:59.095Z,95613.80
2017-06-09T22:05:26.631Z,95609.65
2017-06-09T22:07:54.282Z,95601.73
2017-06-09T22:10:21.822Z,95604.34
2017-06-09T22:12:49.358Z,95613.29
2017-06-09T22:15:16.934Z,95613.78
2017-06-09T22:17:44.469Z,95607.71
2017-06-09T22:20:12.011Z,95616.86
2017-06-09T22:22:39.603Z,95613.77
2017-06-09T22:25:07.154Z,95615.69
2017-06-09T22:27:34.692Z,95617.27
2017-06-09T22:30:02.294Z,95612.45
2017-06-09T22:32:29.867Z,95612.53
2017-06-09T22:34:57.690Z,95616.09
2017-06-09T22:37:25.233Z,95616.25
2017-06-09T22:39:52.818Z,95615.20
2017-06-09T22:42:20.367Z,95609.19
2017-06-09T22:44:47.901Z,95607.06
2017-06-09T22:47:15.464Z,95605.14
2017-06-09T22:49:42.996Z,95589.70
2017-06-09T22:52:10.532Z,95591.77
2017-06-09T22:54:38.113Z,95590.38
2017-06-09T22:57:06.163Z,95588.84
2017-06-09T22:59:33.697Z,95590.54
2017-06-09T23:02:01.273Z,95595.86
2017-06-09T23:04:28.798Z,95602.69
2017-06-09T23:06:56.659Z,95603.05
2017-06-09T23:09:24.709Z,95600.80
2017-06-09T23:11:52.242Z,95606.67
2017-06-09T23:14:19.931Z,95601.40
2017-06-09T23:16:47.633Z,95601.98
2017-06-09T23:19:15.306Z,95599.02
2017-06-09T23:21:42.844Z,95603.89
2017-06-09T23:24:10.707Z,95619.73
2017-06-09T23:26:43.729Z,95621.00
2017-06-09T23:29:11.471Z,95624.25
2017-06-09T23:31:41.875Z,95624.77
2017-06-09T23:34:09.850Z,95619.93
2017-06-09T23:36:37.436Z,95613.56
2017-06-09T23:39:05.519Z,95617.13
2017-06-09T23:41:33.062Z,95615.20
2017-06-09T23:44:00.600Z,95612.45
2017-06-09T23:46:28.173Z,95612.20
2017-06-09T23:48:56.027Z,95605.61
2017-06-09T23:51:23.572Z,95614.12
2017-06-09T23:53:51.157Z,95610.67
2017-06-09T23:56:18.905Z,95611.58
2017-06-09T23:58:46.497Z,95610.39
